sensor_id;sensor_type;location;lat;lon;timestamp;P1;durP1;ratioP1;P2;durP2;ratioP2
71148;SDS011;59072;42.144;25.200;2022-12-10T00:01:03;61.92;;;21.52;;
71148;SDS011;59072;42.144;25.200;2022-12-10T00:03:38;65.85;;;22.70;;
71148;SDS011;59072;42.144;25.200;2022-12-10T00:06:04;67.15;;;23.48;;
71148;SDS011;59072;42.144;25.200;2022-12-10T00:08:31;77.90;;;25.52;;
71148;SDS011;59072;42.144;25.200;2022-12-10T00:10:58;67.30;;;25.15;;
71148;SDS011;59072;42.144;25.200;2022-12-10T00:13:25;69.13;;;25.98;;
71148;SDS011;59072;42.144;25.200;2022-12-10T00:15:51;72.40;;;24.80;;
71148;SDS011;59072;42.144;25.200;2022-12-10T00:18:16;72.65;;;23.92;;
71148;SDS011;59072;42.144;25.200;2022-12-10T00:20:42;76.25;;;24.77;;
71148;SDS011;59072;42.144;25.200;2022-12-10T00:23:07;75.53;;;25.42;;
71148;SDS011;59072;42.144;25.200;2022-12-10T00:25:32;74.82;;;25.15;;
71148;SDS011;59072;42.144;25.200;2022-12-10T00:27:58;74.65;;;26.05;;
71148;SDS011;59072;42.144;25.200;2022-12-10T00:30:24;70.55;;;26.00;;
71148;SDS011;59072;42.144;25.200;2022-12-10T00:32:50;68.28;;;24.98;;
71148;SDS011;59072;42.144;25.200;2022-12-10T00:35:15;73.00;;;25.08;;
71148;SDS011;59072;42.144;25.200;2022-12-10T00:37:41;71.15;;;24.77;;
71148;SDS011;59072;42.144;25.200;2022-12-10T00:40:06;67.13;;;23.10;;
71148;SDS011;59072;42.144;25.200;2022-12-10T00:42:32;69.38;;;25.02;;
71148;SDS011;59072;42.144;25.200;2022-12-10T00:44:58;69.85;;;25.25;;
71148;SDS011;59072;42.144;25.200;2022-12-10T00:47:23;67.15;;;23.42;;
71148;SDS011;59072;42.144;25.200;2022-12-10T00:49:49;68.50;;;23.52;;
71148;SDS011;59072;42.144;25.200;2022-12-10T00:52:14;61.47;;;22.48;;
71148;SDS011;59072;42.144;25.200;2022-12-10T00:54:40;78.93;;;24.90;;
71148;SDS011;59072;42.144;25.200;2022-12-10T00:57:05;74.22;;;24.58;;
71148;SDS011;59072;42.144;25.200;2022-12-10T00:59:31;70.10;;;24.77;;
71148;SDS011;59072;42.144;25.200;2022-12-10T01:01:56;79.45;;;24.75;;
71148;SDS011;59072;42.144;25.200;2022-12-10T01:04:22;68.85;;;24.33;;
71148;SDS011;59072;42.144;25.200;2022-12-10T01:06:51;76.13;;;23.98;;
71148;SDS011;59072;42.144;25.200;2022-12-10T01:09:25;70.75;;;23.13;;
71148;SDS011;59072;42.144;25.200;2022-12-10T01:11:53;74.88;;;25.83;;
71148;SDS011;59072;42.144;25.200;2022-12-10T01:14:26;66.80;;;23.60;;
71148;SDS011;59072;42.144;25.200;2022-12-10T01:16:54;69.88;;;22.63;;
71148;SDS011;59072;42.144;25.200;2022-12-10T01:19:21;81.75;;;26.48;;
71148;SDS011;59072;42.144;25.200;2022-12-10T01:21:51;82.07;;;24.58;;
71148;SDS011;59072;42.144;25.200;2022-12-10T01:24:18;80.90;;;25.48;;
71148;SDS011;59072;42.144;25.200;2022-12-10T01:26:47;81.65;;;23.90;;
71148;SDS011;59072;42.144;25.200;2022-12-10T01:29:13;78.38;;;25.27;;
71148;SDS011;59072;42.144;25.200;2022-12-10T01:31:39;69.55;;;22.75;;
71148;SDS011;59072;42.144;25.200;2022-12-10T01:34:05;76.20;;;23.83;;
71148;SDS011;59072;42.144;25.200;2022-12-10T01:36:34;76.53;;;24.42;;
71148;SDS011;59072;42.144;25.200;2022-12-10T01:39:02;78.57;;;23.38;;
71148;SDS011;59072;42.144;25.200;2022-12-10T01:41:31;83.70;;;24.10;;
71148;SDS011;59072;42.144;25.200;2022-12-10T01:49:00;82.63;;;23.13;;
71148;SDS011;59072;42.144;25.200;2022-12-10T01:51:29;84.60;;;26.52;;
71148;SDS011;59072;42.144;25.200;2022-12-10T01:53:57;71.60;;;24.80;;
71148;SDS011;59072;42.144;25.200;2022-12-10T01:56:22;72.65;;;22.77;;
71148;SDS011;59072;42.144;25.200;2022-12-10T01:58:49;74.55;;;23.67;;
71148;SDS011;59072;42.144;25.200;2022-12-10T02:03:52;75.93;;;22.88;;
71148;SDS011;59072;42.144;25.200;2022-12-10T02:06:50;65.32;;;21.83;;
71148;SDS011;59072;42.144;25.200;2022-12-10T02:17:23;68.40;;;23.25;;
71148;SDS011;59072;42.144;25.200;2022-12-10T02:20:08;69.95;;;20.55;;
71148;SDS011;59072;42.144;25.200;2022-12-10T02:25:24;65.47;;;19.13;;
71148;SDS011;59072;42.144;25.200;2022-12-10T02:28:00;59.78;;;19.02;;
71148;SDS011;59072;42.144;25.200;2022-12-10T02:30:30;56.40;;;20.27;;
71148;SDS011;59072;42.144;25.200;2022-12-10T02:32:58;60.97;;;21.83;;
71148;SDS011;59072;42.144;25.200;2022-12-10T02:35:28;62.70;;;18.45;;
71148;SDS011;59072;42.144;25.200;2022-12-10T02:37:59;53.88;;;18.23;;
71148;SDS011;59072;42.144;25.200;2022-12-10T02:40:31;61.55;;;18.20;;
71148;SDS011;59072;42.144;25.200;2022-12-10T02:42:59;59.40;;;18.73;;
71148;SDS011;59072;42.144;25.200;2022-12-10T02:45:26;56.83;;;18.95;;
71148;SDS011;59072;42.144;25.200;2022-12-10T02:47:54;55.17;;;18.98;;
71148;SDS011;59072;42.144;25.200;2022-12-10T02:50:22;59.47;;;19.85;;
71148;SDS011;59072;42.144;25.200;2022-12-10T02:52:49;53.42;;;18.83;;
71148;SDS011;59072;42.144;25.200;2022-12-10T02:55:14;62.35;;;18.58;;
71148;SDS011;59072;42.144;25.200;2022-12-10T03:00:24;57.67;;;18.05;;
71148;SDS011;59072;42.144;25.200;2022-12-10T03:05:58;51.95;;;18.10;;
71148;SDS011;59072;42.144;25.200;2022-12-10T03:11:22;48.92;;;16.13;;
71148;SDS011;59072;42.144;25.200;2022-12-10T03:16:37;57.33;;;17.55;;
71148;SDS011;59072;42.144;25.200;2022-12-10T03:19:10;56.97;;;17.70;;
71148;SDS011;59072;42.144;25.200;2022-12-10T03:21:39;55.60;;;17.63;;
71148;SDS011;59072;42.144;25.200;2022-12-10T03:24:07;51.72;;;17.42;;
71148;SDS011;59072;42.144;25.200;2022-12-10T03:26:34;57.75;;;17.08;;
71148;SDS011;59072;42.144;25.200;2022-12-10T03:29:05;62.03;;;18.43;;
71148;SDS011;59072;42.144;25.200;2022-12-10T03:31:33;52.20;;;17.50;;
71148;SDS011;59072;42.144;25.200;2022-12-10T03:34:00;52.42;;;17.17;;
71148;SDS011;59072;42.144;25.200;2022-12-10T03:36:27;52.22;;;15.73;;
71148;SDS011;59072;42.144;25.200;2022-12-10T03:38:54;56.33;;;17.88;;
71148;SDS011;59072;42.144;25.200;2022-12-10T03:41:20;48.40;;;16.27;;
71148;SDS011;59072;42.144;25.200;2022-12-10T03:43:55;52.25;;;15.73;;
71148;SDS011;59072;42.144;25.200;2022-12-10T03:46:23;55.00;;;16.23;;
71148;SDS011;59072;42.144;25.200;2022-12-10T03:48:50;48.88;;;16.33;;
71148;SDS011;59072;42.144;25.200;2022-12-10T03:51:16;46.75;;;17.80;;
71148;SDS011;59072;42.144;25.200;2022-12-10T03:53:42;50.95;;;15.68;;
71148;SDS011;59072;42.144;25.200;2022-12-10T03:56:07;44.58;;;14.80;;
71148;SDS011;59072;42.144;25.200;2022-12-10T03:58:33;53.05;;;15.95;;
71148;SDS011;59072;42.144;25.200;2022-12-10T04:00:58;57.17;;;17.48;;
71148;SDS011;59072;42.144;25.200;2022-12-10T04:03:24;46.95;;;16.70;;
71148;SDS011;59072;42.144;25.200;2022-12-10T04:05:49;51.72;;;14.77;;
71148;SDS011;59072;42.144;25.200;2022-12-10T04:08:15;47.50;;;15.57;;
71148;SDS011;59072;42.144;25.200;2022-12-10T04:10:40;43.45;;;16.33;;
71148;SDS011;59072;42.144;25.200;2022-12-10T04:13:05;45.70;;;14.93;;
71148;SDS011;59072;42.144;25.200;2022-12-10T04:15:49;39.20;;;14.45;;
71148;SDS011;59072;42.144;25.200;2022-12-10T04:18:34;47.03;;;16.42;;
71148;SDS011;59072;42.144;25.200;2022-12-10T04:20:59;46.50;;;15.70;;
71148;SDS011;59072;42.144;25.200;2022-12-10T04:23:43;49.78;;;15.93;;
71148;SDS011;59072;42.144;25.200;2022-12-10T04:26:27;47.80;;;15.95;;
71148;SDS011;59072;42.144;25.200;2022-12-10T04:29:11;43.30;;;13.90;;
71148;SDS011;59072;42.144;25.200;2022-12-10T04:31:37;41.92;;;14.68;;
71148;SDS011;59072;42.144;25.200;2022-12-10T04:34:02;45.97;;;15.15;;
71148;SDS011;59072;42.144;25.200;2022-12-10T04:36:27;44.70;;;15.02;;
71148;SDS011;59072;42.144;25.200;2022-12-10T04:38:53;44.10;;;15.10;;
71148;SDS011;59072;42.144;25.200;2022-12-10T04:41:18;41.97;;;14.30;;
71148;SDS011;59072;42.144;25.200;2022-12-10T04:43:44;44.13;;;14.88;;
71148;SDS011;59072;42.144;25.200;2022-12-10T04:46:10;36.38;;;13.52;;
71148;SDS011;59072;42.144;25.200;2022-12-10T04:48:36;44.50;;;15.02;;
71148;SDS011;59072;42.144;25.200;2022-12-10T04:51:01;44.95;;;14.98;;
71148;SDS011;59072;42.144;25.200;2022-12-10T04:53:27;45.08;;;16.83;;
71148;SDS011;59072;42.144;25.200;2022-12-10T04:55:52;40.15;;;14.93;;
71148;SDS011;59072;42.144;25.200;2022-12-10T04:58:18;42.05;;;13.82;;
71148;SDS011;59072;42.144;25.200;2022-12-10T05:00:43;43.35;;;14.77;;
71148;SDS011;59072;42.144;25.200;2022-12-10T05:03:09;44.75;;;14.82;;
71148;SDS011;59072;42.144;25.200;2022-12-10T05:05:34;44.13;;;14.85;;
71148;SDS011;59072;42.144;25.200;2022-12-10T05:08:00;39.05;;;15.70;;
71148;SDS011;59072;42.144;25.200;2022-12-10T05:10:25;44.53;;;15.80;;
71148;SDS011;59072;42.144;25.200;2022-12-10T05:12:51;50.65;;;16.30;;
71148;SDS011;59072;42.144;25.200;2022-12-10T05:15:17;41.70;;;15.77;;
71148;SDS011;59072;42.144;25.200;2022-12-10T05:17:43;44.65;;;15.20;;
71148;SDS011;59072;42.144;25.200;2022-12-10T05:20:09;50.42;;;15.77;;
71148;SDS011;59072;42.144;25.200;2022-12-10T05:22:34;51.90;;;14.70;;
71148;SDS011;59072;42.144;25.200;2022-12-10T05:25:26;43.45;;;15.45;;
71148;SDS011;59072;42.144;25.200;2022-12-10T05:27:51;53.33;;;16.95;;
71148;SDS011;59072;42.144;25.200;2022-12-10T05:30:17;50.53;;;15.88;;
71148;SDS011;59072;42.144;25.200;2022-12-10T05:32:43;45.72;;;15.93;;
71148;SDS011;59072;42.144;25.200;2022-12-10T05:35:09;52.50;;;16.63;;
71148;SDS011;59072;42.144;25.200;2022-12-10T05:37:34;55.78;;;17.85;;
71148;SDS011;59072;42.144;25.200;2022-12-10T05:39:59;58.58;;;18.52;;
71148;SDS011;59072;42.144;25.200;2022-12-10T05:42:25;56.08;;;17.80;;
71148;SDS011;59072;42.144;25.200;2022-12-10T05:44:50;63.70;;;21.35;;
71148;SDS011;59072;42.144;25.200;2022-12-10T05:47:16;61.92;;;19.63;;
71148;SDS011;59072;42.144;25.200;2022-12-10T05:49:41;55.97;;;17.08;;
71148;SDS011;59072;42.144;25.200;2022-12-10T05:52:06;49.03;;;16.27;;
71148;SDS011;59072;42.144;25.200;2022-12-10T05:54:33;57.30;;;17.65;;
71148;SDS011;59072;42.144;25.200;2022-12-10T05:56:59;46.20;;;14.90;;
71148;SDS011;59072;42.144;25.200;2022-12-10T05:59:24;48.30;;;15.18;;
71148;SDS011;59072;42.144;25.200;2022-12-10T06:01:49;49.60;;;15.45;;
71148;SDS011;59072;42.144;25.200;2022-12-10T06:04:15;46.97;;;15.73;;
71148;SDS011;59072;42.144;25.200;2022-12-10T06:06:40;45.45;;;15.45;;
71148;SDS011;59072;42.144;25.200;2022-12-10T06:09:06;51.30;;;17.00;;
71148;SDS011;59072;42.144;25.200;2022-12-10T06:11:36;54.28;;;18.83;;
71148;SDS011;59072;42.144;25.200;2022-12-10T06:14:01;54.90;;;18.33;;
71148;SDS011;59072;42.144;25.200;2022-12-10T06:16:27;51.70;;;16.58;;
71148;SDS011;59072;42.144;25.200;2022-12-10T06:18:53;52.40;;;18.17;;
71148;SDS011;59072;42.144;25.200;2022-12-10T06:21:19;50.47;;;17.17;;
71148;SDS011;59072;42.144;25.200;2022-12-10T06:23:47;58.97;;;23.10;;
71148;SDS011;59072;42.144;25.200;2022-12-10T06:26:17;49.00;;;16.40;;
71148;SDS011;59072;42.144;25.200;2022-12-10T06:28:47;47.17;;;17.73;;
71148;SDS011;59072;42.144;25.200;2022-12-10T06:31:13;53.00;;;18.50;;
71148;SDS011;59072;42.144;25.200;2022-12-10T06:33:40;57.05;;;18.20;;
71148;SDS011;59072;42.144;25.200;2022-12-10T06:36:06;50.35;;;16.17;;
71148;SDS011;59072;42.144;25.200;2022-12-10T06:38:33;53.75;;;17.40;;
71148;SDS011;59072;42.144;25.200;2022-12-10T06:41:00;53.70;;;19.27;;
71148;SDS011;59072;42.144;25.200;2022-12-10T06:43:28;55.50;;;21.52;;
71148;SDS011;59072;42.144;25.200;2022-12-10T06:45:54;52.40;;;17.95;;
71148;SDS011;59072;42.144;25.200;2022-12-10T06:48:20;47.55;;;16.60;;
71148;SDS011;59072;42.144;25.200;2022-12-10T06:50:45;63.00;;;21.67;;
71148;SDS011;59072;42.144;25.200;2022-12-10T06:53:10;61.22;;;25.10;;
71148;SDS011;59072;42.144;25.200;2022-12-10T06:55:36;53.45;;;19.25;;
71148;SDS011;59072;42.144;25.200;2022-12-10T06:58:03;54.60;;;20.50;;
71148;SDS011;59072;42.144;25.200;2022-12-10T07:00:29;55.97;;;21.67;;
71148;SDS011;59072;42.144;25.200;2022-12-10T07:02:54;68.20;;;25.20;;
71148;SDS011;59072;42.144;25.200;2022-12-10T07:05:19;55.53;;;21.10;;
71148;SDS011;59072;42.144;25.200;2022-12-10T07:07:45;49.70;;;18.25;;
71148;SDS011;59072;42.144;25.200;2022-12-10T07:10:11;48.88;;;19.55;;
71148;SDS011;59072;42.144;25.200;2022-12-10T07:12:36;49.28;;;17.30;;
71148;SDS011;59072;42.144;25.200;2022-12-10T07:15:02;58.80;;;23.35;;
71148;SDS011;59072;42.144;25.200;2022-12-10T07:17:28;51.47;;;19.40;;
71148;SDS011;59072;42.144;25.200;2022-12-10T07:19:54;55.17;;;20.83;;
71148;SDS011;59072;42.144;25.200;2022-12-10T07:22:19;55.67;;;21.77;;
71148;SDS011;59072;42.144;25.200;2022-12-10T07:24:44;55.85;;;21.38;;
71148;SDS011;59072;42.144;25.200;2022-12-10T07:27:10;56.85;;;21.67;;
71148;SDS011;59072;42.144;25.200;2022-12-10T07:29:35;74.28;;;29.67;;
71148;SDS011;59072;42.144;25.200;2022-12-10T07:32:01;97.05;;;37.97;;
71148;SDS011;59072;42.144;25.200;2022-12-10T07:34:26;72.65;;;26.50;;
71148;SDS011;59072;42.144;25.200;2022-12-10T07:36:52;67.03;;;23.67;;
71148;SDS011;59072;42.144;25.200;2022-12-10T07:39:17;98.25;;;38.88;;
71148;SDS011;59072;42.144;25.200;2022-12-10T07:41:44;66.25;;;25.20;;
71148;SDS011;59072;42.144;25.200;2022-12-10T07:44:12;57.90;;;21.73;;
71148;SDS011;59072;42.144;25.200;2022-12-10T07:46:37;62.17;;;24.73;;
71148;SDS011;59072;42.144;25.200;2022-12-10T07:49:03;53.10;;;18.98;;
71148;SDS011;59072;42.144;25.200;2022-12-10T07:51:29;64.00;;;23.35;;
71148;SDS011;59072;42.144;25.200;2022-12-10T07:53:55;48.22;;;19.05;;
71148;SDS011;59072;42.144;25.200;2022-12-10T07:56:21;46.47;;;18.08;;
71148;SDS011;59072;42.144;25.200;2022-12-10T07:58:48;45.47;;;18.33;;
71148;SDS011;59072;42.144;25.200;2022-12-10T08:01:18;54.55;;;21.05;;
71148;SDS011;59072;42.144;25.200;2022-12-10T08:03:47;48.97;;;20.02;;
71148;SDS011;59072;42.144;25.200;2022-12-10T08:06:16;49.42;;;19.17;;
71148;SDS011;59072;42.144;25.200;2022-12-10T08:08:44;51.78;;;19.08;;
71148;SDS011;59072;42.144;25.200;2022-12-10T08:11:10;54.72;;;21.45;;
71148;SDS011;59072;42.144;25.200;2022-12-10T08:13:36;57.70;;;21.00;;
71148;SDS011;59072;42.144;25.200;2022-12-10T08:16:06;56.72;;;21.83;;
71148;SDS011;59072;42.144;25.200;2022-12-10T08:18:36;59.38;;;23.10;;
71148;SDS011;59072;42.144;25.200;2022-12-10T08:21:09;60.63;;;22.80;;
71148;SDS011;59072;42.144;25.200;2022-12-10T08:23:38;54.08;;;21.30;;
71148;SDS011;59072;42.144;25.200;2022-12-10T08:26:05;58.60;;;21.15;;
71148;SDS011;59072;42.144;25.200;2022-12-10T08:28:31;57.22;;;21.38;;
71148;SDS011;59072;42.144;25.200;2022-12-10T08:30:56;58.00;;;22.00;;
71148;SDS011;59072;42.144;25.200;2022-12-10T08:33:22;58.67;;;23.48;;
71148;SDS011;59072;42.144;25.200;2022-12-10T08:35:47;60.50;;;22.95;;
71148;SDS011;59072;42.144;25.200;2022-12-10T08:38:13;65.07;;;25.27;;
71148;SDS011;59072;42.144;25.200;2022-12-10T08:40:39;54.70;;;22.88;;
71148;SDS011;59072;42.144;25.200;2022-12-10T08:43:05;54.22;;;21.35;;
71148;SDS011;59072;42.144;25.200;2022-12-10T08:45:31;63.97;;;24.88;;
71148;SDS011;59072;42.144;25.200;2022-12-10T08:47:56;67.50;;;26.30;;
71148;SDS011;59072;42.144;25.200;2022-12-10T08:50:22;67.03;;;24.30;;
71148;SDS011;59072;42.144;25.200;2022-12-10T08:52:47;64.28;;;24.55;;
71148;SDS011;59072;42.144;25.200;2022-12-10T08:55:12;62.90;;;23.70;;
71148;SDS011;59072;42.144;25.200;2022-12-10T08:57:38;67.30;;;26.15;;
71148;SDS011;59072;42.144;25.200;2022-12-10T09:00:03;68.18;;;28.65;;
71148;SDS011;59072;42.144;25.200;2022-12-10T09:02:29;66.53;;;25.75;;
71148;SDS011;59072;42.144;25.200;2022-12-10T09:04:55;67.60;;;28.23;;
71148;SDS011;59072;42.144;25.200;2022-12-10T09:07:20;70.07;;;28.33;;
71148;SDS011;59072;42.144;25.200;2022-12-10T09:09:46;66.53;;;25.83;;
71148;SDS011;59072;42.144;25.200;2022-12-10T09:12:12;65.43;;;26.20;;
71148;SDS011;59072;42.144;25.200;2022-12-10T09:14:37;70.05;;;28.52;;
71148;SDS011;59072;42.144;25.200;2022-12-10T09:17:05;75.72;;;28.52;;
71148;SDS011;59072;42.144;25.200;2022-12-10T09:19:31;73.93;;;29.13;;
71148;SDS011;59072;42.144;25.200;2022-12-10T09:21:56;72.43;;;28.90;;
71148;SDS011;59072;42.144;25.200;2022-12-10T09:24:21;70.90;;;28.60;;
71148;SDS011;59072;42.144;25.200;2022-12-10T09:26:47;72.80;;;28.75;;
71148;SDS011;59072;42.144;25.200;2022-12-10T09:29:12;71.68;;;25.27;;
71148;SDS011;59072;42.144;25.200;2022-12-10T09:31:38;57.83;;;24.02;;
71148;SDS011;59072;42.144;25.200;2022-12-10T09:34:04;70.38;;;29.38;;
71148;SDS011;59072;42.144;25.200;2022-12-10T09:36:29;74.65;;;33.38;;
71148;SDS011;59072;42.144;25.200;2022-12-10T09:38:55;69.65;;;29.92;;
71148;SDS011;59072;42.144;25.200;2022-12-10T09:46:48;64.75;;;25.48;;
71148;SDS011;59072;42.144;25.200;2022-12-10T09:49:23;79.95;;;32.15;;
71148;SDS011;59072;42.144;25.200;2022-12-10T09:51:57;93.30;;;39.92;;
71148;SDS011;59072;42.144;25.200;2022-12-10T09:56:57;69.38;;;29.52;;
71148;SDS011;59072;42.144;25.200;2022-12-10T09:59:34;58.33;;;23.67;;
71148;SDS011;59072;42.144;25.200;2022-12-10T10:07:34;55.45;;;24.00;;
71148;SDS011;59072;42.144;25.200;2022-12-10T10:10:05;66.88;;;27.38;;
71148;SDS011;59072;42.144;25.200;2022-12-10T10:12:37;82.70;;;35.70;;
71148;SDS011;59072;42.144;25.200;2022-12-10T10:15:12;62.78;;;30.90;;
71148;SDS011;59072;42.144;25.200;2022-12-10T10:17:41;51.40;;;23.33;;
71148;SDS011;59072;42.144;25.200;2022-12-10T10:20:10;58.40;;;37.25;;
71148;SDS011;59072;42.144;25.200;2022-12-10T10:22:37;40.40;;;18.42;;
71148;SDS011;59072;42.144;25.200;2022-12-10T10:25:04;44.40;;;22.60;;
71148;SDS011;59072;42.144;25.200;2022-12-10T10:27:31;40.42;;;19.83;;
71148;SDS011;59072;42.144;25.200;2022-12-10T10:29:59;50.22;;;24.40;;
71148;SDS011;59072;42.144;25.200;2022-12-10T10:32:44;42.65;;;20.95;;
71148;SDS011;59072;42.144;25.200;2022-12-10T10:35:20;38.63;;;18.52;;
71148;SDS011;59072;42.144;25.200;2022-12-10T10:37:48;37.70;;;16.60;;
71148;SDS011;59072;42.144;25.200;2022-12-10T10:40:21;43.25;;;21.58;;
71148;SDS011;59072;42.144;25.200;2022-12-10T10:42:47;42.28;;;21.13;;
71148;SDS011;59072;42.144;25.200;2022-12-10T10:48:19;40.63;;;17.35;;
71148;SDS011;59072;42.144;25.200;2022-12-10T10:53:21;32.00;;;15.27;;
71148;SDS011;59072;42.144;25.200;2022-12-10T10:55:54;29.63;;;13.80;;
71148;SDS011;59072;42.144;25.200;2022-12-10T11:01:01;40.17;;;15.85;;
71148;SDS011;59072;42.144;25.200;2022-12-10T11:03:30;31.88;;;15.02;;
71148;SDS011;59072;42.144;25.200;2022-12-10T11:05:58;32.50;;;15.60;;
71148;SDS011;59072;42.144;25.200;2022-12-10T11:08:26;34.25;;;16.63;;
71148;SDS011;59072;42.144;25.200;2022-12-10T11:10:56;33.35;;;16.15;;
71148;SDS011;59072;42.144;25.200;2022-12-10T11:13:35;39.65;;;17.42;;
71148;SDS011;59072;42.144;25.200;2022-12-10T11:18:51;38.83;;;18.77;;
71148;SDS011;59072;42.144;25.200;2022-12-10T11:21:27;38.73;;;17.67;;
71148;SDS011;59072;42.144;25.200;2022-12-10T11:23:55;38.93;;;20.43;;
71148;SDS011;59072;42.144;25.200;2022-12-10T11:26:38;38.42;;;18.27;;
71148;SDS011;59072;42.144;25.200;2022-12-10T11:29:31;37.13;;;17.70;;
71148;SDS011;59072;42.144;25.200;2022-12-10T11:35:01;38.35;;;19.98;;
71148;SDS011;59072;42.144;25.200;2022-12-10T11:37:39;43.65;;;20.83;;
71148;SDS011;59072;42.144;25.200;2022-12-10T11:48:51;42.67;;;18.70;;
71148;SDS011;59072;42.144;25.200;2022-12-10T11:57:01;53.90;;;34.42;;
71148;SDS011;59072;42.144;25.200;2022-12-10T11:59:46;58.70;;;36.47;;
71148;SDS011;59072;42.144;25.200;2022-12-10T12:05:06;35.25;;;16.77;;
71148;SDS011;59072;42.144;25.200;2022-12-10T12:13:06;38.10;;;20.13;;
71148;SDS011;59072;42.144;25.200;2022-12-10T12:15:54;38.05;;;19.08;;
71148;SDS011;59072;42.144;25.200;2022-12-10T12:21:15;37.20;;;17.65;;
71148;SDS011;59072;42.144;25.200;2022-12-10T12:28:51;37.60;;;19.45;;
71148;SDS011;59072;42.144;25.200;2022-12-10T12:31:24;42.40;;;19.63;;
71148;SDS011;59072;42.144;25.200;2022-12-10T12:34:00;38.05;;;17.30;;
71148;SDS011;59072;42.144;25.200;2022-12-10T12:36:33;95.20;;;34.08;;
71148;SDS011;59072;42.144;25.200;2022-12-10T12:42:14;41.85;;;19.38;;
71148;SDS011;59072;42.144;25.200;2022-12-10T12:47:47;39.13;;;19.02;;
71148;SDS011;59072;42.144;25.200;2022-12-10T12:53:23;42.22;;;19.67;;
71148;SDS011;59072;42.144;25.200;2022-12-10T12:58:30;83.45;;;35.08;;
71148;SDS011;59072;42.144;25.200;2022-12-10T13:03:49;93.10;;;39.20;;
71148;SDS011;59072;42.144;25.200;2022-12-10T13:06:21;48.55;;;25.50;;
71148;SDS011;59072;42.144;25.200;2022-12-10T13:08:59;39.80;;;20.30;;
71148;SDS011;59072;42.144;25.200;2022-12-10T13:11:43;41.78;;;20.48;;
71148;SDS011;59072;42.144;25.200;2022-12-10T13:14:16;39.42;;;18.95;;
71148;SDS011;59072;42.144;25.200;2022-12-10T13:17:05;45.28;;;25.40;;
71148;SDS011;59072;42.144;25.200;2022-12-10T13:19:34;41.65;;;21.33;;
71148;SDS011;59072;42.144;25.200;2022-12-10T13:32:17;45.70;;;24.27;;
71148;SDS011;59072;42.144;25.200;2022-12-10T13:40:22;43.38;;;22.02;;
71148;SDS011;59072;42.144;25.200;2022-12-10T13:43:26;40.83;;;20.60;;
71148;SDS011;59072;42.144;25.200;2022-12-10T13:46:34;42.85;;;20.38;;
71148;SDS011;59072;42.144;25.200;2022-12-10T13:49:19;44.13;;;21.23;;
71148;SDS011;59072;42.144;25.200;2022-12-10T13:52:03;45.25;;;20.95;;
71148;SDS011;59072;42.144;25.200;2022-12-10T14:02:41;49.00;;;26.10;;
71148;SDS011;59072;42.144;25.200;2022-12-10T14:08:06;71.53;;;30.75;;
71148;SDS011;59072;42.144;25.200;2022-12-10T14:10:35;49.38;;;24.88;;
71148;SDS011;59072;42.144;25.200;2022-12-10T14:13:02;45.60;;;22.08;;
71148;SDS011;59072;42.144;25.200;2022-12-10T14:15:29;44.60;;;22.92;;
71148;SDS011;59072;42.144;25.200;2022-12-10T14:18:14;54.70;;;32.47;;
71148;SDS011;59072;42.144;25.200;2022-12-10T14:20:45;52.60;;;26.27;;
71148;SDS011;59072;42.144;25.200;2022-12-10T14:23:46;63.58;;;32.63;;
71148;SDS011;59072;42.144;25.200;2022-12-10T14:26:20;58.95;;;30.13;;
71148;SDS011;59072;42.144;25.200;2022-12-10T14:28:54;87.80;;;41.22;;
71148;SDS011;59072;42.144;25.200;2022-12-10T14:31:32;97.43;;;51.13;;
71148;SDS011;59072;42.144;25.200;2022-12-10T14:36:30;123.05;;;53.88;;
71148;SDS011;59072;42.144;25.200;2022-12-10T14:38:58;90.00;;;43.88;;
71148;SDS011;59072;42.144;25.200;2022-12-10T14:41:25;110.70;;;50.45;;
71148;SDS011;59072;42.144;25.200;2022-12-10T14:43:52;125.00;;;67.80;;
71148;SDS011;59072;42.144;25.200;2022-12-10T14:46:20;115.13;;;55.97;;
71148;SDS011;59072;42.144;25.200;2022-12-10T14:48:50;175.65;;;76.88;;
71148;SDS011;59072;42.144;25.200;2022-12-10T14:51:18;159.50;;;69.78;;
71148;SDS011;59072;42.144;25.200;2022-12-10T14:53:46;104.60;;;46.75;;
71148;SDS011;59072;42.144;25.200;2022-12-10T14:56:19;82.97;;;39.83;;
71148;SDS011;59072;42.144;25.200;2022-12-10T14:58:50;126.90;;;57.33;;
71148;SDS011;59072;42.144;25.200;2022-12-10T15:01:40;75.13;;;38.90;;
71148;SDS011;59072;42.144;25.200;2022-12-10T15:04:15;64.45;;;34.25;;
71148;SDS011;59072;42.144;25.200;2022-12-10T15:06:42;56.05;;;30.40;;
71148;SDS011;59072;42.144;25.200;2022-12-10T15:09:24;62.42;;;35.60;;
71148;SDS011;59072;42.144;25.200;2022-12-10T15:11:54;71.95;;;39.28;;
71148;SDS011;59072;42.144;25.200;2022-12-10T15:14:21;77.35;;;42.03;;
71148;SDS011;59072;42.144;25.200;2022-12-10T15:16:49;85.72;;;42.42;;
71148;SDS011;59072;42.144;25.200;2022-12-10T15:21:50;84.32;;;41.88;;
71148;SDS011;59072;42.144;25.200;2022-12-10T15:24:18;93.10;;;47.40;;
71148;SDS011;59072;42.144;25.200;2022-12-10T15:26:51;112.22;;;61.03;;
71148;SDS011;59072;42.144;25.200;2022-12-10T15:32:03;64.72;;;34.33;;
71148;SDS011;59072;42.144;25.200;2022-12-10T15:34:52;98.22;;;46.83;;
71148;SDS011;59072;42.144;25.200;2022-12-10T15:37:23;117.78;;;56.65;;
71148;SDS011;59072;42.144;25.200;2022-12-10T15:39:55;140.30;;;53.70;;
71148;SDS011;59072;42.144;25.200;2022-12-10T15:42:27;99.55;;;43.95;;
71148;SDS011;59072;42.144;25.200;2022-12-10T15:44:56;122.20;;;47.40;;
71148;SDS011;59072;42.144;25.200;2022-12-10T15:47:25;98.35;;;43.47;;
71148;SDS011;59072;42.144;25.200;2022-12-10T15:49:55;111.10;;;48.17;;
71148;SDS011;59072;42.144;25.200;2022-12-10T15:52:30;106.45;;;49.67;;
71148;SDS011;59072;42.144;25.200;2022-12-10T15:54:56;110.47;;;52.63;;
71148;SDS011;59072;42.144;25.200;2022-12-10T15:57:30;118.13;;;44.10;;
71148;SDS011;59072;42.144;25.200;2022-12-10T16:00:02;98.37;;;36.47;;
71148;SDS011;59072;42.144;25.200;2022-12-10T16:07:35;84.22;;;41.90;;
71148;SDS011;59072;42.144;25.200;2022-12-10T16:10:00;105.85;;;43.10;;
71148;SDS011;59072;42.144;25.200;2022-12-10T16:12:26;113.35;;;47.33;;
71148;SDS011;59072;42.144;25.200;2022-12-10T16:14:52;69.60;;;29.60;;
71148;SDS011;59072;42.144;25.200;2022-12-10T16:17:28;90.53;;;41.45;;
71148;SDS011;59072;42.144;25.200;2022-12-10T16:20:14;87.75;;;37.60;;
71148;SDS011;59072;42.144;25.200;2022-12-10T16:22:53;94.18;;;38.15;;
71148;SDS011;59072;42.144;25.200;2022-12-10T16:25:20;98.03;;;33.95;;
71148;SDS011;59072;42.144;25.200;2022-12-10T16:27:47;73.45;;;29.75;;
71148;SDS011;59072;42.144;25.200;2022-12-10T16:30:14;93.55;;;34.45;;
71148;SDS011;59072;42.144;25.200;2022-12-10T16:32:48;75.40;;;30.35;;
71148;SDS011;59072;42.144;25.200;2022-12-10T16:35:14;135.55;;;58.85;;
71148;SDS011;59072;42.144;25.200;2022-12-10T16:37:41;71.00;;;34.63;;
71148;SDS011;59072;42.144;25.200;2022-12-10T16:40:08;131.63;;;54.95;;
71148;SDS011;59072;42.144;25.200;2022-12-10T16:42:34;145.70;;;59.53;;